sensor_id;sensor_type;location;lat;lon;timestamp;P1;durP1;ratioP1;P2;durP2;ratioP2
69953;SDS011;57276;51.364;12.376;2023-07-29T00:01:35;3.30;;;1.40;;
69953;SDS011;57276;51.364;12.376;2023-07-29T00:07:37;3.78;;;1.40;;
69953;SDS011;57276;51.364;12.376;2023-07-29T00:13:38;4.27;;;1.60;;
69953;SDS011;57276;51.364;12.376;2023-07-29T00:19:40;3.28;;;1.63;;
69953;SDS011;57276;51.364;12.376;2023-07-29T00:25:41;2.95;;;1.38;;
69953;SDS011;57276;51.364;12.376;2023-07-29T00:31:43;5.07;;;1.50;;
69953;SDS011;57276;51.364;12.376;2023-07-29T00:37:45;4.13;;;1.20;;
69953;SDS011;57276;51.364;12.376;2023-07-29T00:43:46;4.17;;;1.70;;
69953;SDS011;57276;51.364;12.376;2023-07-29T00:49:48;3.20;;;1.30;;
69953;SDS011;57276;51.364;12.376;2023-07-29T00:55:50;4.45;;;1.30;;
69953;SDS011;57276;51.364;12.376;2023-07-29T01:01:51;3.40;;;1.60;;
69953;SDS011;57276;51.364;12.376;2023-07-29T01:07:56;3.55;;;1.42;;
69953;SDS011;57276;51.364;12.376;2023-07-29T01:14:04;3.43;;;1.60;;
69953;SDS011;57276;51.364;12.376;2023-07-29T01:20:08;3.10;;;1.40;;
69953;SDS011;57276;51.364;12.376;2023-07-29T01:26:10;4.28;;;1.48;;
69953;SDS011;57276;51.364;12.376;2023-07-29T01:32:14;3.00;;;1.30;;
69953;SDS011;57276;51.364;12.376;2023-07-29T01:38:22;3.33;;;1.58;;
69953;SDS011;57276;51.364;12.376;2023-07-29T01:44:25;3.20;;;1.47;;
69953;SDS011;57276;51.364;12.376;2023-07-29T01:50:27;3.38;;;1.63;;
69953;SDS011;57276;51.364;12.376;2023-07-29T01:56:29;3.42;;;1.70;;
69953;SDS011;57276;51.364;12.376;2023-07-29T02:02:31;4.47;;;1.53;;
69953;SDS011;57276;51.364;12.376;2023-07-29T02:08:33;3.42;;;1.52;;
69953;SDS011;57276;51.364;12.376;2023-07-29T02:14:34;3.80;;;1.50;;
69953;SDS011;57276;51.364;12.376;2023-07-29T02:20:36;3.88;;;1.35;;
69953;SDS011;57276;51.364;12.376;2023-07-29T02:26:38;3.30;;;1.50;;
69953;SDS011;57276;51.364;12.376;2023-07-29T02:32:39;3.83;;;1.40;;
69953;SDS011;57276;51.364;12.376;2023-07-29T02:38:41;5.15;;;1.65;;
69953;SDS011;57276;51.364;12.376;2023-07-29T02:44:44;5.60;;;1.60;;
69953;SDS011;57276;51.364;12.376;2023-07-29T02:50:45;3.17;;;1.65;;
69953;SDS011;57276;51.364;12.376;2023-07-29T02:56:47;3.40;;;1.70;;
69953;SDS011;57276;51.364;12.376;2023-07-29T03:02:49;4.73;;;1.60;;
69953;SDS011;57276;51.364;12.376;2023-07-29T03:08:51;3.20;;;1.63;;
69953;SDS011;57276;51.364;12.376;2023-07-29T03:14:52;3.27;;;1.57;;
69953;SDS011;57276;51.364;12.376;2023-07-29T03:20:55;3.80;;;1.48;;
69953;SDS011;57276;51.364;12.376;2023-07-29T03:26:57;3.30;;;1.48;;
69953;SDS011;57276;51.364;12.376;2023-07-29T03:32:58;3.30;;;1.60;;
69953;SDS011;57276;51.364;12.376;2023-07-29T03:39:00;3.47;;;1.70;;
69953;SDS011;57276;51.364;12.376;2023-07-29T03:45:05;4.57;;;1.60;;
69953;SDS011;57276;51.364;12.376;2023-07-29T03:51:06;3.58;;;1.70;;
69953;SDS011;57276;51.364;12.376;2023-07-29T03:57:08;3.10;;;1.55;;
69953;SDS011;57276;51.364;12.376;2023-07-29T04:03:10;3.87;;;1.80;;
69953;SDS011;57276;51.364;12.376;2023-07-29T04:09:11;4.13;;;1.92;;
69953;SDS011;57276;51.364;12.376;2023-07-29T04:15:13;3.60;;;1.87;;
69953;SDS011;57276;51.364;12.376;2023-07-29T04:21:14;3.50;;;1.70;;
69953;SDS011;57276;51.364;12.376;2023-07-29T04:27:16;3.40;;;1.80;;
69953;SDS011;57276;51.364;12.376;2023-07-29T04:33:17;3.47;;;1.87;;
69953;SDS011;57276;51.364;12.376;2023-07-29T04:39:19;4.30;;;1.83;;
69953;SDS011;57276;51.364;12.376;2023-07-29T04:45:21;4.23;;;2.10;;
69953;SDS011;57276;51.364;12.376;2023-07-29T04:51:24;3.55;;;1.80;;
69953;SDS011;57276;51.364;12.376;2023-07-29T04:57:26;3.30;;;1.80;;
69953;SDS011;57276;51.364;12.376;2023-07-29T05:03:29;4.03;;;1.83;;
69953;SDS011;57276;51.364;12.376;2023-07-29T05:09:31;4.18;;;1.90;;
69953;SDS011;57276;51.364;12.376;2023-07-29T05:15:33;3.47;;;1.90;;
69953;SDS011;57276;51.364;12.376;2023-07-29T05:21:34;3.30;;;1.85;;
69953;SDS011;57276;51.364;12.376;2023-07-29T05:27:36;5.05;;;1.92;;
69953;SDS011;57276;51.364;12.376;2023-07-29T05:33:37;4.97;;;1.93;;
69953;SDS011;57276;51.364;12.376;2023-07-29T05:39:40;4.25;;;1.80;;
69953;SDS011;57276;51.364;12.376;2023-07-29T05:45:42;3.80;;;1.80;;
69953;SDS011;57276;51.364;12.376;2023-07-29T05:51:44;3.70;;;1.70;;
69953;SDS011;57276;51.364;12.376;2023-07-29T05:57:46;4.13;;;1.98;;
69953;SDS011;57276;51.364;12.376;2023-07-29T06:03:47;3.23;;;1.80;;
69953;SDS011;57276;51.364;12.376;2023-07-29T06:09:49;3.40;;;1.95;;
69953;SDS011;57276;51.364;12.376;2023-07-29T06:15:51;3.30;;;1.90;;
69953;SDS011;57276;51.364;12.376;2023-07-29T06:21:54;4.25;;;1.85;;
69953;SDS011;57276;51.364;12.376;2023-07-29T06:27:56;3.47;;;2.15;;
69953;SDS011;57276;51.364;12.376;2023-07-29T06:33:59;3.50;;;2.00;;
69953;SDS011;57276;51.364;12.376;2023-07-29T06:40:01;3.60;;;2.10;;
69953;SDS011;57276;51.364;12.376;2023-07-29T06:46:03;5.10;;;2.00;;
69953;SDS011;57276;51.364;12.376;2023-07-29T06:52:05;3.45;;;1.80;;
69953;SDS011;57276;51.364;12.376;2023-07-29T06:58:06;4.80;;;2.13;;
69953;SDS011;57276;51.364;12.376;2023-07-29T07:04:08;4.37;;;2.00;;
69953;SDS011;57276;51.364;12.376;2023-07-29T07:10:09;3.78;;;2.10;;
69953;SDS011;57276;51.364;12.376;2023-07-29T07:16:11;3.57;;;1.87;;
69953;SDS011;57276;51.364;12.376;2023-07-29T07:22:12;3.50;;;1.88;;
69953;SDS011;57276;51.364;12.376;2023-07-29T07:28:14;3.65;;;1.88;;
69953;SDS011;57276;51.364;12.376;2023-07-29T07:34:16;4.27;;;1.90;;
69953;SDS011;57276;51.364;12.376;2023-07-29T07:40:17;4.32;;;1.65;;
69953;SDS011;57276;51.364;12.376;2023-07-29T07:46:19;3.53;;;1.80;;
69953;SDS011;57276;51.364;12.376;2023-07-29T07:52:21;3.90;;;1.80;;
69953;SDS011;57276;51.364;12.376;2023-07-29T07:58:22;4.15;;;2.08;;
69953;SDS011;57276;51.364;12.376;2023-07-29T08:04:24;5.57;;;2.10;;
69953;SDS011;57276;51.364;12.376;2023-07-29T08:10:25;3.50;;;2.00;;
69953;SDS011;57276;51.364;12.376;2023-07-29T08:16:27;4.10;;;1.83;;
69953;SDS011;57276;51.364;12.376;2023-07-29T08:22:29;3.83;;;1.90;;
69953;SDS011;57276;51.364;12.376;2023-07-29T08:28:31;3.13;;;1.85;;
69953;SDS011;57276;51.364;12.376;2023-07-29T08:34:33;3.13;;;1.70;;
69953;SDS011;57276;51.364;12.376;2023-07-29T08:40:35;3.80;;;1.65;;
69953;SDS011;57276;51.364;12.376;2023-07-29T08:46:38;3.50;;;1.70;;
69953;SDS011;57276;51.364;12.376;2023-07-29T08:52:41;4.50;;;1.80;;
69953;SDS011;57276;51.364;12.376;2023-07-29T08:58:43;3.83;;;1.80;;
69953;SDS011;57276;51.364;12.376;2023-07-29T09:04:45;3.80;;;1.83;;
69953;SDS011;57276;51.364;12.376;2023-07-29T09:10:47;4.65;;;2.10;;
69953;SDS011;57276;51.364;12.376;2023-07-29T09:16:48;3.80;;;1.90;;
69953;SDS011;57276;51.364;12.376;2023-07-29T09:22:50;3.28;;;1.70;;
69953;SDS011;57276;51.364;12.376;2023-07-29T09:28:55;2.80;;;1.27;;
69953;SDS011;57276;51.364;12.376;2023-07-29T09:34:57;2.77;;;1.27;;
69953;SDS011;57276;51.364;12.376;2023-07-29T09:40:59;3.05;;;1.30;;
69953;SDS011;57276;51.364;12.376;2023-07-29T09:47:00;2.70;;;1.20;;
69953;SDS011;57276;51.364;12.376;2023-07-29T09:53:02;2.70;;;1.30;;
69953;SDS011;57276;51.364;12.376;2023-07-29T09:59:04;3.03;;;1.38;;
69953;SDS011;57276;51.364;12.376;2023-07-29T10:05:06;4.40;;;1.10;;
69953;SDS011;57276;51.364;12.376;2023-07-29T10:11:09;2.60;;;1.25;;
69953;SDS011;57276;51.364;12.376;2023-07-29T10:17:11;3.10;;;1.50;;
69953;SDS011;57276;51.364;12.376;2023-07-29T10:23:13;3.78;;;1.58;;
69953;SDS011;57276;51.364;12.376;2023-07-29T10:29:18;3.65;;;1.50;;
69953;SDS011;57276;51.364;12.376;2023-07-29T10:35:20;3.27;;;1.20;;
69953;SDS011;57276;51.364;12.376;2023-07-29T10:41:22;3.10;;;1.50;;
69953;SDS011;57276;51.364;12.376;2023-07-29T10:47:25;2.90;;;1.40;;
69953;SDS011;57276;51.364;12.376;2023-07-29T10:53:29;8.93;;;2.10;;
69953;SDS011;57276;51.364;12.376;2023-07-29T10:59:32;3.38;;;1.77;;
69953;SDS011;57276;51.364;12.376;2023-07-29T11:05:51;5.77;;;1.70;;
69953;SDS011;57276;51.364;12.376;2023-07-29T11:11:53;4.32;;;1.60;;
69953;SDS011;57276;51.364;12.376;2023-07-29T11:17:58;2.93;;;1.40;;
69953;SDS011;57276;51.364;12.376;2023-07-29T11:24:00;3.28;;;1.50;;
69953;SDS011;57276;51.364;12.376;2023-07-29T11:30:03;3.95;;;1.60;;
69953;SDS011;57276;51.364;12.376;2023-07-29T11:36:06;3.20;;;1.70;;
69953;SDS011;57276;51.364;12.376;2023-07-29T11:42:11;3.13;;;1.60;;
69953;SDS011;57276;51.364;12.376;2023-07-29T11:48:13;3.60;;;1.70;;
69953;SDS011;57276;51.364;12.376;2023-07-29T11:54:14;3.45;;;1.52;;
69953;SDS011;57276;51.364;12.376;2023-07-29T12:00:16;4.30;;;1.80;;
69953;SDS011;57276;51.364;12.376;2023-07-29T12:06:19;3.27;;;1.60;;
69953;SDS011;57276;51.364;12.376;2023-07-29T12:12:22;3.40;;;1.70;;
69953;SDS011;57276;51.364;12.376;2023-07-29T12:18:29;3.40;;;1.70;;
69953;SDS011;57276;51.364;12.376;2023-07-29T12:24:31;4.03;;;1.60;;
69953;SDS011;57276;51.364;12.376;2023-07-29T12:30:33;5.03;;;1.95;;
69953;SDS011;57276;51.364;12.376;2023-07-29T12:36:44;3.77;;;1.50;;
69953;SDS011;57276;51.364;12.376;2023-07-29T12:42:45;3.83;;;1.75;;
69953;SDS011;57276;51.364;12.376;2023-07-29T12:48:47;3.17;;;1.50;;
69953;SDS011;57276;51.364;12.376;2023-07-29T12:54:49;4.10;;;1.60;;
69953;SDS011;57276;51.364;12.376;2023-07-29T13:00:50;4.70;;;1.55;;
69953;SDS011;57276;51.364;12.376;2023-07-29T13:06:52;3.33;;;1.60;;
69953;SDS011;57276;51.364;12.376;2023-07-29T13:12:53;3.50;;;1.80;;
69953;SDS011;57276;51.364;12.376;2023-07-29T13:18:55;3.80;;;1.60;;
69953;SDS011;57276;51.364;12.376;2023-07-29T13:24:57;3.53;;;1.88;;
69953;SDS011;57276;51.364;12.376;2023-07-29T13:30:58;3.20;;;1.80;;
69953;SDS011;57276;51.364;12.376;2023-07-29T13:37:00;3.53;;;2.13;;
69953;SDS011;57276;51.364;12.376;2023-07-29T13:43:01;4.45;;;2.20;;
69953;SDS011;57276;51.364;12.376;2023-07-29T13:49:03;3.47;;;2.27;;
69953;SDS011;57276;51.364;12.376;2023-07-29T13:55:05;5.20;;;2.80;;
69953;SDS011;57276;51.364;12.376;2023-07-29T14:01:06;3.60;;;2.70;;
69953;SDS011;57276;51.364;12.376;2023-07-29T14:07:08;3.93;;;2.60;;
69953;SDS011;57276;51.364;12.376;2023-07-29T14:13:10;3.70;;;2.37;;
69953;SDS011;57276;51.364;12.376;2023-07-29T14:19:12;3.20;;;2.25;;
69953;SDS011;57276;51.364;12.376;2023-07-29T14:25:14;3.40;;;2.10;;
69953;SDS011;57276;51.364;12.376;2023-07-29T14:31:16;4.10;;;2.20;;
69953;SDS011;57276;51.364;12.376;2023-07-29T14:37:18;4.97;;;2.58;;
69953;SDS011;57276;51.364;12.376;2023-07-29T14:43:20;3.80;;;2.20;;
69953;SDS011;57276;51.364;12.376;2023-07-29T14:49:21;4.03;;;2.10;;
69953;SDS011;57276;51.364;12.376;2023-07-29T14:55:23;6.00;;;2.33;;
69953;SDS011;57276;51.364;12.376;2023-07-29T15:01:25;3.88;;;2.10;;
69953;SDS011;57276;51.364;12.376;2023-07-29T15:07:26;5.65;;;2.20;;
69953;SDS011;57276;51.364;12.376;2023-07-29T15:13:28;5.50;;;2.17;;
69953;SDS011;57276;51.364;12.376;2023-07-29T15:19:30;5.07;;;2.10;;
69953;SDS011;57276;51.364;12.376;2023-07-29T15:25:31;13.17;;;2.67;;
69953;SDS011;57276;51.364;12.376;2023-07-29T15:31:33;6.65;;;2.47;;
69953;SDS011;57276;51.364;12.376;2023-07-29T15:37:35;4.57;;;2.35;;
69953;SDS011;57276;51.364;12.376;2023-07-29T15:43:36;4.77;;;2.10;;
69953;SDS011;57276;51.364;12.376;2023-07-29T15:49:38;6.03;;;2.80;;
69953;SDS011;57276;51.364;12.376;2023-07-29T15:55:40;5.60;;;2.50;;
69953;SDS011;57276;51.364;12.376;2023-07-29T16:01:41;4.47;;;2.35;;
69953;SDS011;57276;51.364;12.376;2023-07-29T16:07:43;5.25;;;2.42;;
69953;SDS011;57276;51.364;12.376;2023-07-29T16:13:45;4.53;;;2.23;;
69953;SDS011;57276;51.364;12.376;2023-07-29T16:19:53;5.80;;;2.40;;
69953;SDS011;57276;51.364;12.376;2023-07-29T16:25:56;4.80;;;2.20;;
69953;SDS011;57276;51.364;12.376;2023-07-29T16:31:57;4.75;;;2.30;;
69953;SDS011;57276;51.364;12.376;2023-07-29T16:37:59;4.70;;;2.08;;
69953;SDS011;57276;51.364;12.376;2023-07-29T16:44:02;5.40;;;2.20;;
69953;SDS011;57276;51.364;12.376;2023-07-29T16:50:03;5.93;;;2.10;;
69953;SDS011;57276;51.364;12.376;2023-07-29T16:56:11;6.30;;;2.10;;
69953;SDS011;57276;51.364;12.376;2023-07-29T17:02:12;5.30;;;2.20;;
69953;SDS011;57276;51.364;12.376;2023-07-29T17:08:14;6.63;;;2.00;;
69953;SDS011;57276;51.364;12.376;2023-07-29T17:14:16;4.97;;;2.00;;
69953;SDS011;57276;51.364;12.376;2023-07-29T17:20:17;5.70;;;2.10;;
69953;SDS011;57276;51.364;12.376;2023-07-29T17:26:21;4.77;;;2.30;;
69953;SDS011;57276;51.364;12.376;2023-07-29T17:32:22;4.88;;;2.20;;
69953;SDS011;57276;51.364;12.376;2023-07-29T17:38:24;4.68;;;2.20;;
69953;SDS011;57276;51.364;12.376;2023-07-29T17:44:25;4.27;;;2.10;;
69953;SDS011;57276;51.364;12.376;2023-07-29T17:50:27;4.30;;;2.05;;
69953;SDS011;57276;51.364;12.376;2023-07-29T17:56:33;4.60;;;2.00;;
69953;SDS011;57276;51.364;12.376;2023-07-29T18:02:35;5.35;;;1.80;;
69953;SDS011;57276;51.364;12.376;2023-07-29T18:08:36;5.07;;;2.08;;
69953;SDS011;57276;51.364;12.376;2023-07-29T18:14:38;4.73;;;1.67;;
69953;SDS011;57276;51.364;12.376;2023-07-29T18:20:39;4.68;;;2.00;;
69953;SDS011;57276;51.364;12.376;2023-07-29T18:26:42;6.10;;;1.90;;
69953;SDS011;57276;51.364;12.376;2023-07-29T18:32:44;3.95;;;1.90;;
69953;SDS011;57276;51.364;12.376;2023-07-29T18:38:46;5.10;;;1.77;;
69953;SDS011;57276;51.364;12.376;2023-07-29T18:44:47;4.53;;;1.73;;
69953;SDS011;57276;51.364;12.376;2023-07-29T18:50:49;5.60;;;2.05;;
69953;SDS011;57276;51.364;12.376;2023-07-29T18:56:50;5.53;;;2.00;;
69953;SDS011;57276;51.364;12.376;2023-07-29T19:02:52;5.00;;;2.00;;
69953;SDS011;57276;51.364;12.376;2023-07-29T19:08:55;6.05;;;1.90;;
69953;SDS011;57276;51.364;12.376;2023-07-29T19:14:56;4.97;;;2.03;;
69953;SDS011;57276;51.364;12.376;2023-07-29T19:20:58;8.73;;;2.15;;
69953;SDS011;57276;51.364;12.376;2023-07-29T19:26:59;4.50;;;1.93;;
69953;SDS011;57276;51.364;12.376;2023-07-29T19:33:10;4.70;;;2.25;;
69953;SDS011;57276;51.364;12.376;2023-07-29T19:39:12;5.22;;;2.03;;
69953;SDS011;57276;51.364;12.376;2023-07-29T19:45:13;5.60;;;2.10;;
69953;SDS011;57276;51.364;12.376;2023-07-29T19:51:15;4.25;;;2.05;;
69953;SDS011;57276;51.364;12.376;2023-07-29T19:57:17;4.00;;;1.97;;
69953;SDS011;57276;51.364;12.376;2023-07-29T20:03:18;5.07;;;2.03;;
69953;SDS011;57276;51.364;12.376;2023-07-29T20:09:20;3.80;;;1.92;;
69953;SDS011;57276;51.364;12.376;2023-07-29T20:15:24;4.47;;;2.07;;
69953;SDS011;57276;51.364;12.376;2023-07-29T20:21:25;3.90;;;2.00;;
69953;SDS011;57276;51.364;12.376;2023-07-29T20:27:27;4.63;;;2.13;;
69953;SDS011;57276;51.364;12.376;2023-07-29T20:33:28;4.95;;;2.10;;
69953;SDS011;57276;51.364;12.376;2023-07-29T20:39:30;5.53;;;2.08;;
69953;SDS011;57276;51.364;12.376;2023-07-29T20:45:32;6.30;;;2.30;;
69953;SDS011;57276;51.364;12.376;2023-07-29T20:51:33;5.35;;;2.40;;
69953;SDS011;57276;51.364;12.376;2023-07-29T20:57:35;8.67;;;2.47;;
69953;SDS011;57276;51.364;12.376;2023-07-29T21:03:37;8.65;;;2.55;;
69953;SDS011;57276;51.364;12.376;2023-07-29T21:09:38;5.85;;;2.40;;
69953;SDS011;57276;51.364;12.376;2023-07-29T21:15:40;5.70;;;2.40;;
69953;SDS011;57276;51.364;12.376;2023-07-29T21:21:41;5.78;;;2.50;;
69953;SDS011;57276;51.364;12.376;2023-07-29T21:27:43;7.90;;;2.60;;
69953;SDS011;57276;51.364;12.376;2023-07-29T21:33:44;5.28;;;2.67;;
69953;SDS011;57276;51.364;12.376;2023-07-29T21:39:46;6.10;;;3.08;;
69953;SDS011;57276;51.364;12.376;2023-07-29T21:45:47;7.23;;;2.60;;
69953;SDS011;57276;51.364;12.376;2023-07-29T21:51:49;6.97;;;2.80;;
69953;SDS011;57276;51.364;12.376;2023-07-29T21:57:51;6.50;;;3.67;;
69953;SDS011;57276;51.364;12.376;2023-07-29T22:03:53;6.05;;;2.92;;
69953;SDS011;57276;51.364;12.376;2023-07-29T22:09:54;6.22;;;2.70;;
69953;SDS011;57276;51.364;12.376;2023-07-29T22:15:56;8.27;;;2.80;;
69953;SDS011;57276;51.364;12.376;2023-07-29T22:22:14;6.60;;;2.50;;
69953;SDS011;57276;51.364;12.376;2023-07-29T22:28:16;5.00;;;2.70;;
69953;SDS011;57276;51.364;12.376;2023-07-29T22:34:17;5.23;;;2.90;;
69953;SDS011;57276;51.364;12.376;2023-07-29T22:40:20;6.30;;;3.10;;
69953;SDS011;57276;51.364;12.376;2023-07-29T22:46:22;5.73;;;2.97;;
69953;SDS011;57276;51.364;12.376;2023-07-29T22:52:23;6.63;;;2.83;;
69953;SDS011;57276;51.364;12.376;2023-07-29T22:58:26;6.13;;;3.00;;
69953;SDS011;57276;51.364;12.376;2023-07-29T23:04:27;5.80;;;2.87;;
69953;SDS011;57276;51.364;12.376;2023-07-29T23:10:29;5.78;;;3.15;;
69953;SDS011;57276;51.364;12.376;2023-07-29T23:16:30;8.87;;;3.20;;
69953;SDS011;57276;51.364;12.376;2023-07-29T23:22:32;8.52;;;3.08;;
69953;SDS011;57276;51.364;12.376;2023-07-29T23:28:34;5.35;;;3.00;;
69953;SDS011;57276;51.364;12.376;2023-07-29T23:34:35;8.20;;;3.40;;
69953;SDS011;57276;51.364;12.376;2023-07-29T23:40:37;6.20;;;3.50;;
69953;SDS011;57276;51.364;12.376;2023-07-29T23:46:39;10.33;;;3.20;;
69953;SDS011;57276;51.364;12.376;2023-07-29T23:52:40;7.03;;;3.22;;
69953;SDS011;57276;51.364;12.376;2023-07-29T23:58:42;6.75;;;3.22;;
